createdAt,value
2022-09-06T00:01:32.136Z,7.60
2022-09-06T00:04:00.028Z,4.47
2022-09-06T00:06:27.944Z,5.20
2022-09-06T00:08:55.834Z,3.73
2022-09-06T00:11:23.741Z,3.37
2022-09-06T00:13:51.685Z,4.00
2022-09-06T00:16:21.720Z,4.93
2022-09-06T00:18:53.789Z,5.43
2022-09-06T00:21:24.116Z,5.43
2022-09-06T00:23:52.384Z,4.73
2022-09-06T00:26:20.750Z,7.73
2022-09-06T00:28:48.804Z,7.67
2022-09-06T00:31:19.244Z,6.03
2022-09-06T00:33:47.746Z,6.50
2022-09-06T00:36:18.037Z,4.03
2022-09-06T00:38:46.401Z,4.00
2022-09-06T00:41:16.458Z,4.67
2022-09-06T00:43:44.926Z,6.17
2022-09-06T00:46:17.083Z,5.30
2022-09-06T00:48:47.007Z,3.80
2022-09-06T00:51:17.763Z,3.60
2022-09-06T00:53:45.893Z,6.03
2022-09-06T00:56:14.729Z,5.83
2022-09-06T00:58:42.869Z,5.40
2022-09-06T01:01:10.905Z,4.50
2022-09-06T01:03:39.564Z,4.97
2022-09-06T01:06:24.549Z,4.40
2022-09-06T01:09:02.907Z,4.10
2022-09-06T01:11:47.005Z,5.93
2022-09-06T01:14:28.016Z,7.63
2022-09-06T01:17:04.117Z,4.30
2022-09-06T01:20:09.750Z,8.70
2022-09-06T01:23:05.623Z,6.30
2022-09-06T01:25:40.198Z,4.03
2022-09-06T01:28:24.580Z,6.77
2022-09-06T01:30:59.731Z,6.30
2022-09-06T01:33:35.629Z,3.73
2022-09-06T01:36:09.032Z,5.60
2022-09-06T01:38:37.113Z,4.43
2022-09-06T01:41:05.137Z,5.60
2022-09-06T01:43:38.072Z,3.73
2022-09-06T01:46:13.891Z,6.37
2022-09-06T01:49:04.645Z,3.77
2022-09-06T01:51:39.239Z,3.37
2022-09-06T01:54:27.429Z,3.60
2022-09-06T01:57:13.720Z,4.80
2022-09-06T02:00:05.741Z,3.37
2022-09-06T02:02:54.610Z,3.97
2022-09-06T02:05:28.580Z,3.63
2022-09-06T02:08:02.016Z,4.17
2022-09-06T02:10:35.105Z,3.83
2022-09-06T02:13:06.926Z,3.37
2022-09-06T02:15:40.207Z,5.33
2022-09-06T02:18:13.093Z,3.67
2022-09-06T02:20:44.861Z,4.20
2022-09-06T02:23:13.696Z,5.20
2022-09-06T02:25:45.113Z,4.20
2022-09-06T02:28:13.296Z,4.30
2022-09-06T02:30:46.886Z,4.87
2022-09-06T02:33:19.177Z,3.80
2022-09-06T02:35:49.961Z,3.67
2022-09-06T02:38:18.851Z,3.80
2022-09-06T02:40:47.686Z,3.60
2022-09-06T02:43:15.520Z,4.63
2022-09-06T02:45:44.751Z,6.07
2022-09-06T02:48:12.627Z,4.20
2022-09-06T02:50:40.453Z,4.40
2022-09-06T02:53:10.499Z,4.10
2022-09-06T02:55:39.406Z,4.00
2022-09-06T02:58:09.855Z,5.60
2022-09-06T03:00:38.075Z,4.73
2022-09-06T03:03:07.687Z,5.40
2022-09-06T03:05:35.775Z,6.80
2022-09-06T03:08:04.191Z,4.47
2022-09-06T03:10:32.073Z,3.90
2022-09-06T03:13:00.046Z,4.20
2022-09-06T03:15:28.244Z,5.47
2022-09-06T03:17:59.784Z,6.20
2022-09-06T03:20:30.283Z,4.40
2022-09-06T03:22:59.894Z,4.17
2022-09-06T03:25:27.878Z,4.67
2022-09-06T03:27:55.843Z,4.83
2022-09-06T03:30:23.962Z,4.20
2022-09-06T03:32:52.139Z,4.50
2022-09-06T03:35:20.173Z,4.43
2022-09-06T03:37:49.533Z,4.33
2022-09-06T03:40:17.755Z,4.37
2022-09-06T03:42:46.526Z,6.97
2022-09-06T03:45:14.524Z,4.33
2022-09-06T03:47:42.582Z,5.13
2022-09-06T03:50:10.993Z,5.07
2022-09-06T03:52:38.914Z,3.90
2022-09-06T03:55:09.238Z,4.80
2022-09-06T03:57:37.140Z,3.83
2022-09-06T04:00:06.273Z,4.47
2022-09-06T04:02:39.438Z,3.73
2022-09-06T04:05:08.119Z,5.43
2022-09-06T04:07:37.956Z,5.57
2022-09-06T04:10:08.426Z,4.70
2022-09-06T04:12:36.471Z,4.00
2022-09-06T04:15:04.755Z,4.87
2022-09-06T04:17:32.668Z,5.53
2022-09-06T04:20:00.536Z,3.80
2022-09-06T04:22:28.396Z,4.87
2022-09-06T04:24:56.337Z,5.77
2022-09-06T04:27:25.589Z,5.20
2022-09-06T04:29:53.479Z,4.20
2022-09-06T04:32:21.308Z,3.97
2022-09-06T04:34:49.263Z,8.20
2022-09-06T04:37:20.077Z,4.77
2022-09-06T04:39:48.024Z,4.50
2022-09-06T04:42:16.421Z,6.20
2022-09-06T04:44:45.695Z,4.40
2022-09-06T04:47:17.369Z,5.13
2022-09-06T04:49:45.420Z,6.27
2022-09-06T04:52:13.730Z,5.47
2022-09-06T04:54:41.821Z,4.47
2022-09-06T04:57:09.838Z,3.97
2022-09-06T04:59:38.854Z,3.70
2022-09-06T05:02:08.174Z,3.70
2022-09-06T05:04:36.103Z,4.90
2022-09-06T05:07:05.741Z,4.00
2022-09-06T05:09:34.616Z,4.50
2022-09-06T05:12:02.841Z,3.90
2022-09-06T05:14:31.087Z,4.60
2022-09-06T05:16:59.084Z,3.83
2022-09-06T05:19:28.364Z,4.27
2022-09-06T05:21:56.320Z,3.73
2022-09-06T05:24:24.250Z,4.63
2022-09-06T05:26:52.187Z,3.93
2022-09-06T05:29:20.100Z,3.87
2022-09-06T05:31:48.074Z,4.17
2022-09-06T05:34:16.079Z,3.63
2022-09-06T05:36:46.168Z,7.27
2022-09-06T05:39:14.139Z,3.90
2022-09-06T05:41:42.150Z,4.93
2022-09-06T05:44:10.108Z,6.23
2022-09-06T05:46:43.611Z,3.53
2022-09-06T05:49:11.691Z,5.67
2022-09-06T05:51:40.174Z,3.90
2022-09-06T05:54:12.651Z,5.90
2022-09-06T05:56:40.533Z,4.77
2022-09-06T05:59:08.423Z,6.10
2022-09-06T06:01:36.419Z,4.50
2022-09-06T06:04:08.001Z,7.40
2022-09-06T06:06:36.215Z,10.43
2022-09-06T06:09:04.200Z,7.87
2022-09-06T06:11:33.669Z,4.37
2022-09-06T06:14:01.644Z,5.23
2022-09-06T06:16:29.649Z,4.30
2022-09-06T06:18:58.094Z,3.40
2022-09-06T06:21:27.605Z,5.50
2022-09-06T06:23:58.163Z,5.40
2022-09-06T06:26:27.184Z,3.60
2022-09-06T06:28:57.867Z,8.00
2022-09-06T06:31:25.785Z,3.57
2022-09-06T06:33:53.788Z,5.73
2022-09-06T06:36:23.684Z,4.23
2022-09-06T06:38:55.239Z,4.47
2022-09-06T06:41:25.004Z,3.43
2022-09-06T06:43:53.770Z,6.87
2022-09-06T06:46:24.629Z,3.40
2022-09-06T06:48:55.224Z,8.10
2022-09-06T06:51:25.001Z,3.30
2022-09-06T06:53:53.492Z,3.70
2022-09-06T06:56:23.024Z,4.43
2022-09-06T06:58:52.640Z,7.77
2022-09-06T07:01:23.289Z,3.07
2022-09-06T07:03:51.744Z,4.50
2022-09-06T07:06:21.182Z,3.53
2022-09-06T07:08:49.843Z,6.43
2022-09-06T07:11:21.610Z,5.17
2022-09-06T07:13:52.431Z,4.87
2022-09-06T07:16:23.470Z,5.03
2022-09-06T07:18:53.188Z,5.97
2022-09-06T07:21:41.357Z,3.43
2022-09-06T07:24:09.922Z,7.10
2022-09-06T07:26:40.142Z,5.57
2022-09-06T07:29:09.555Z,3.97
2022-09-06T07:34:28.035Z,5.40
2022-09-06T07:36:56.366Z,3.20
2022-09-06T07:39:24.379Z,3.73
2022-09-06T07:41:52.486Z,4.23
2022-09-06T07:44:20.417Z,5.30
2022-09-06T07:46:50.095Z,3.90
2022-09-06T07:49:18.004Z,4.50
2022-09-06T07:51:45.880Z,3.87
2022-09-06T07:54:29.766Z,6.40
2022-09-06T07:56:58.123Z,2.93
2022-09-06T07:59:26.086Z,4.67
2022-09-06T08:01:55.515Z,3.80
2022-09-06T08:04:23.482Z,2.33
2022-09-06T08:09:41.123Z,4.00
2022-09-06T08:12:09.724Z,2.27
2022-09-06T08:14:37.733Z,5.00
2022-09-06T08:17:07.207Z,4.70
2022-09-06T08:19:35.529Z,5.40
2022-09-06T08:22:03.500Z,5.30
2022-09-06T08:24:31.725Z,3.50
2022-09-06T08:26:59.597Z,1.80
2022-09-06T08:29:27.949Z,3.40
2022-09-06T08:31:55.893Z,4.73
2022-09-06T08:34:25.306Z,3.87
2022-09-06T08:36:53.289Z,5.53
2022-09-06T08:39:21.243Z,5.50
2022-09-06T08:41:53.228Z,2.77
2022-09-06T08:47:14.425Z,3.23
2022-09-06T08:49:46.258Z,2.40
2022-09-06T08:52:49.461Z,3.57
2022-09-06T08:55:35.197Z,3.37
2022-09-06T08:58:14.876Z,3.73
2022-09-06T09:00:49.293Z,3.17
2022-09-06T09:03:19.821Z,3.73
2022-09-06T09:05:53.112Z,2.80
2022-09-06T09:08:25.223Z,3.87
2022-09-06T09:10:56.168Z,3.13
2022-09-06T09:13:30.351Z,3.67
2022-09-06T09:15:58.324Z,3.70
2022-09-06T09:18:31.303Z,2.63
2022-09-06T09:21:00.635Z,2.90
2022-09-06T09:23:30.055Z,2.90
2022-09-06T09:26:03.349Z,2.00
2022-09-06T09:28:31.547Z,2.13
2022-09-06T09:30:59.824Z,2.57
2022-09-06T09:33:34.271Z,4.00
2022-09-06T09:36:12.819Z,1.80
2022-09-06T09:38:44.001Z,2.20
2022-09-06T09:41:26.183Z,2.43
2022-09-06T09:44:03.686Z,1.90
2022-09-06T09:46:34.232Z,2.70
2022-09-06T09:49:05.893Z,3.27
2022-09-06T09:51:40.090Z,1.60
2022-09-06T09:54:09.733Z,1.33
2022-09-06T09:56:45.405Z,2.67
2022-09-06T09:59:21.608Z,2.03
2022-09-06T10:01:49.839Z,2.90
2022-09-06T10:07:17.559Z,1.90
2022-09-06T10:09:48.637Z,2.13
2022-09-06T10:12:28.403Z,2.27
2022-09-06T10:14:57.869Z,2.10
2022-09-06T10:17:31.755Z,3.27
2022-09-06T10:20:03.504Z,3.37
2022-09-06T10:22:36.454Z,2.30
2022-09-06T10:25:48.971Z,2.67
2022-09-06T10:28:41.795Z,2.43
2022-09-06T10:31:25.393Z,2.80
2022-09-06T10:34:07.676Z,1.87
2022-09-06T10:36:38.276Z,4.13
2022-09-06T10:39:19.877Z,3.47
2022-09-06T10:42:07.821Z,5.00
2022-09-06T10:44:52.394Z,2.67
2022-09-06T10:47:20.448Z,2.37
2022-09-06T10:49:55.046Z,3.07
2022-09-06T10:52:29.126Z,2.43
2022-09-06T10:55:04.928Z,3.10
2022-09-06T11:00:28.633Z,3.10
2022-09-06T11:06:00.297Z,2.10
2022-09-06T11:08:53.495Z,4.17
2022-09-06T11:11:29.699Z,2.30
2022-09-06T11:13:57.547Z,3.27
2022-09-06T11:16:30.059Z,3.33
2022-09-06T11:19:02.416Z,3.13
2022-09-06T11:22:16.309Z,3.70
2022-09-06T11:25:04.527Z,5.17
2022-09-06T11:27:39.282Z,3.20
2022-09-06T11:30:08.259Z,4.23
2022-09-06T11:32:40.563Z,3.23
2022-09-06T11:35:11.198Z,2.20
2022-09-06T11:37:42.932Z,3.67
2022-09-06T11:43:19.312Z,2.77
2022-09-06T11:45:50.785Z,4.47
2022-09-06T11:48:37.215Z,2.63
2022-09-06T11:51:10.868Z,5.00
2022-09-06T11:54:06.538Z,5.00
2022-09-06T11:56:41.671Z,3.63
2022-09-06T11:59:25.805Z,3.20
2022-09-06T12:02:04.872Z,5.40
2022-09-06T12:05:07.472Z,5.60
2022-09-06T12:07:36.671Z,5.53
2022-09-06T12:10:44.174Z,6.20
2022-09-06T12:13:39.758Z,6.30
2022-09-06T12:16:10.265Z,8.20
2022-09-06T12:19:03.871Z,9.60
2022-09-06T12:21:47.464Z,5.73
2022-09-06T12:24:53.687Z,7.03
2022-09-06T12:27:23.392Z,5.73
2022-09-06T12:29:55.245Z,9.07
2022-09-06T12:32:28.409Z,6.17
2022-09-06T12:37:52.403Z,7.10
2022-09-06T12:40:22.987Z,6.73
2022-09-06T12:42:52.241Z,8.37
2022-09-06T12:45:25.208Z,6.87
2022-09-06T12:48:09.089Z,5.47
2022-09-06T12:50:37.624Z,7.33
2022-09-06T12:53:23.383Z,6.40
2022-09-06T12:56:04.330Z,6.63
2022-09-06T12:58:32.236Z,7.30
2022-09-06T13:01:06.905Z,6.63
2022-09-06T13:03:39.529Z,6.77
2022-09-06T13:06:08.778Z,5.40
2022-09-06T13:08:42.429Z,9.27
2022-09-06T13:11:14.457Z,12.10
2022-09-06T13:13:48.977Z,7.07
2022-09-06T13:16:24.973Z,10.23
2022-09-06T13:18:55.288Z,6.20
2022-09-06T13:21:31.101Z,7.50
2022-09-06T13:24:04.035Z,8.33
2022-09-06T13:26:37.004Z,8.97
2022-09-06T13:29:13.211Z,8.87
2022-09-06T13:31:46.925Z,7.07
2022-09-06T13:34:23.215Z,9.63
2022-09-06T13:36:52.546Z,7.60
2022-09-06T13:39:32.540Z,9.40
2022-09-06T13:42:07.453Z,5.37
2022-09-06T13:44:36.838Z,5.43
2022-09-06T13:47:05.500Z,4.60
2022-09-06T13:49:34.893Z,8.43
2022-09-06T13:52:04.603Z,5.97
2022-09-06T13:54:34.989Z,6.80
2022-09-06T13:57:02.819Z,6.80
2022-09-06T13:59:31.547Z,7.47
2022-09-06T14:02:02.737Z,7.20
2022-09-06T14:04:31.918Z,7.13
2022-09-06T14:07:01.403Z,9.03
2022-09-06T14:09:29.495Z,5.53
2022-09-06T14:11:57.759Z,8.60
2022-09-06T14:14:25.818Z,7.00
2022-09-06T14:16:54.065Z,9.03
2022-09-06T14:19:22.071Z,7.20
2022-09-06T14:21:50.187Z,6.17
2022-09-06T14:24:19.608Z,10.00
2022-09-06T14:26:47.560Z,4.90
2022-09-06T14:29:15.395Z,9.67
2022-09-06T14:31:43.280Z,5.60
2022-09-06T14:34:11.156Z,6.00
2022-09-06T14:36:39.331Z,7.43
2022-09-06T14:39:07.690Z,9.87
2022-09-06T14:41:37.617Z,7.53
2022-09-06T14:44:05.731Z,7.70
2022-09-06T14:46:33.737Z,7.53
2022-09-06T14:49:03.253Z,7.30
2022-09-06T14:51:31.583Z,7.37
2022-09-06T14:54:01.017Z,5.20
2022-09-06T14:56:29.403Z,7.00
2022-09-06T14:58:59.969Z,6.03
2022-09-06T15:01:34.079Z,4.13
2022-09-06T15:04:05.115Z,6.00
2022-09-06T15:06:34.759Z,7.07
2022-09-06T15:09:02.770Z,5.87
2022-09-06T15:11:34.472Z,5.60
2022-09-06T15:14:06.315Z,8.70
2022-09-06T15:16:35.170Z,4.87
2022-09-06T15:19:03.753Z,8.07
2022-09-06T15:21:32.357Z,4.57
2022-09-06T15:24:01.996Z,6.60
2022-09-06T15:26:30.521Z,8.30
2022-09-06T15:29:02.002Z,7.50
2022-09-06T15:31:33.895Z,9.73
2022-09-06T15:34:02.848Z,7.17
2022-09-06T15:36:31.160Z,5.07
2022-09-06T15:39:01.280Z,6.00
2022-09-06T15:41:32.371Z,5.73
2022-09-06T15:44:02.260Z,6.87
2022-09-06T15:46:45.350Z,8.37
2022-09-06T15:49:15.328Z,5.57
2022-09-06T15:51:43.752Z,5.53
2022-09-06T15:54:14.023Z,8.10
2022-09-06T15:56:42.193Z,7.60
2022-09-06T15:59:10.774Z,6.97
2022-09-06T16:01:39.635Z,8.27
2022-09-06T16:04:08.951Z,4.30
2022-09-06T16:06:40.700Z,6.03
2022-09-06T16:09:11.072Z,5.83
2022-09-06T16:11:39.067Z,10.03
2022-09-06T16:14:08.686Z,8.10
2022-09-06T16:16:37.077Z,5.47
2022-09-06T16:19:05.577Z,8.83
2022-09-06T16:21:37.788Z,8.63
2022-09-06T16:24:08.008Z,6.97
2022-09-06T16:26:38.141Z,8.00
2022-09-06T16:29:08.306Z,6.30
2022-09-06T16:31:40.730Z,6.40
2022-09-06T16:34:09.132Z,7.27
2022-09-06T16:36:39.039Z,9.67
2022-09-06T16:39:07.473Z,8.43
2022-09-06T16:41:40.574Z,7.80
2022-09-06T16:44:09.313Z,9.57
2022-09-06T16:46:40.085Z,11.73
2022-09-06T16:49:08.310Z,6.63
2022-09-06T16:51:37.876Z,5.33
2022-09-06T16:54:06.058Z,7.00
2022-09-06T16:56:36.066Z,9.17
2022-09-06T16:59:06.320Z,5.23
2022-09-06T17:01:35.413Z,5.93
2022-09-06T17:04:04.519Z,6.77
2022-09-06T17:06:34.184Z,11.33
2022-09-06T17:09:03.609Z,10.63
2022-09-06T17:11:32.064Z,6.63
2022-09-06T17:14:00.003Z,7.40
2022-09-06T17:16:45.365Z,10.50
2022-09-06T17:19:13.890Z,7.60
2022-09-06T17:21:41.919Z,8.27
2022-09-06T17:24:11.637Z,7.07
2022-09-06T17:26:41.058Z,6.03
2022-09-06T17:29:10.418Z,6.10
2022-09-06T17:31:38.943Z,8.83
2022-09-06T17:34:07.145Z,8.67
2022-09-06T17:36:36.458Z,6.93
2022-09-06T17:39:06.378Z,7.60
2022-09-06T17:41:38.928Z,6.53
2022-09-06T17:44:10.482Z,6.07
2022-09-06T17:46:47.700Z,9.87
2022-09-06T17:49:20.488Z,6.73
2022-09-06T17:51:49.578Z,7.07
2022-09-06T17:54:17.755Z,8.03
2022-09-06T17:56:47.304Z,6.93
2022-09-06T17:59:15.851Z,8.77
2022-09-06T18:01:45.855Z,9.53
2022-09-06T18:04:16.015Z,5.00
2022-09-06T18:06:46.888Z,8.13
2022-09-06T18:09:17.943Z,6.43
2022-09-06T18:11:47.431Z,8.97
2022-09-06T18:14:20.926Z,7.23
2022-09-06T18:16:49.997Z,7.53
2022-09-06T18:19:18.809Z,9.40
2022-09-06T18:21:48.138Z,8.53
2022-09-06T18:24:16.661Z,7.97
2022-09-06T18:26:45.261Z,9.30
2022-09-06T18:29:17.950Z,8.40
2022-09-06T18:31:46.138Z,10.23
2022-09-06T18:34:15.916Z,8.13
2022-09-06T18:36:43.971Z,8.87
2022-09-06T18:39:13.200Z,8.27
2022-09-06T18:41:58.715Z,9.57
2022-09-06T18:44:32.284Z,7.20
2022-09-06T18:47:02.382Z,7.77
2022-09-06T18:49:31.243Z,9.17
2022-09-06T18:51:59.574Z,10.13
2022-09-06T18:54:27.915Z,9.47
2022-09-06T18:56:56.339Z,9.13
2022-09-06T18:59:24.712Z,8.00
2022-09-06T19:01:54.251Z,6.73
2022-09-06T19:04:22.527Z,9.03
2022-09-06T19:06:50.793Z,10.57
2022-09-06T19:09:19.169Z,11.33
2022-09-06T19:11:51.244Z,8.40
2022-09-06T19:14:19.181Z,8.03
2022-09-06T19:16:48.635Z,15.13
2022-09-06T19:19:18.078Z,8.43
2022-09-06T19:21:46.031Z,8.20
2022-09-06T19:24:14.987Z,10.40
2022-09-06T19:26:45.049Z,9.87
2022-09-06T19:29:16.025Z,9.63
2022-09-06T19:31:45.035Z,5.40
2022-09-06T19:34:15.304Z,10.20
2022-09-06T19:36:45.944Z,10.40
2022-09-06T19:39:16.564Z,9.10
2022-09-06T19:41:46.991Z,5.27
2022-09-06T19:44:15.459Z,7.00
2022-09-06T19:46:46.157Z,5.63
2022-09-06T19:49:15.418Z,8.57
2022-09-06T19:51:46.392Z,9.37
2022-09-06T19:54:15.575Z,12.10
2022-09-06T19:56:44.774Z,6.73
2022-09-06T19:59:14.002Z,9.43
2022-09-06T20:01:44.133Z,7.27
2022-09-06T20:04:13.385Z,14.43
2022-09-06T20:06:41.929Z,12.20
2022-09-06T20:09:12.019Z,6.93
2022-09-06T20:11:41.801Z,10.93
2022-09-06T20:14:10.792Z,10.47
2022-09-06T20:16:41.876Z,7.63
2022-09-06T20:19:11.980Z,9.33
2022-09-06T20:21:40.235Z,11.47
2022-09-06T20:24:08.685Z,6.37
2022-09-06T20:26:38.206Z,8.73
2022-09-06T20:29:06.886Z,7.73
2022-09-06T20:31:36.954Z,8.77
2022-09-06T20:34:06.364Z,8.47
2022-09-06T20:36:34.638Z,6.50
2022-09-06T20:39:03.161Z,7.27
2022-09-06T20:41:31.183Z,7.30
2022-09-06T20:44:01.198Z,7.33
2022-09-06T20:46:30.687Z,7.40
2022-09-06T20:49:03.625Z,6.80
2022-09-06T20:51:32.946Z,10.77
2022-09-06T20:54:02.883Z,6.47
2022-09-06T20:56:33.275Z,8.17
2022-09-06T20:59:04.863Z,4.33
2022-09-06T21:01:35.224Z,10.40
2022-09-06T21:04:04.837Z,10.53
2022-09-06T21:06:35.586Z,8.87
2022-09-06T21:09:04.488Z,9.00
2022-09-06T21:11:32.965Z,8.47
2022-09-06T21:14:02.721Z,10.07
2022-09-06T21:16:31.582Z,7.40
2022-09-06T21:19:00.817Z,7.67
2022-09-06T21:21:30.441Z,7.63
2022-09-06T21:23:58.503Z,8.73
2022-09-06T21:26:26.577Z,6.80
2022-09-06T21:28:55.127Z,7.33
2022-09-06T21:31:26.333Z,7.03
2022-09-06T21:33:55.851Z,9.73
2022-09-06T21:36:27.561Z,7.63
2022-09-06T21:38:56.843Z,4.90
2022-09-06T21:41:25.127Z,8.67
2022-09-06T21:43:54.198Z,8.63
2022-09-06T21:46:31.894Z,8.33
2022-09-06T21:49:04.683Z,6.80
2022-09-06T21:51:33.441Z,7.60
2022-09-06T21:54:04.282Z,9.87
2022-09-06T21:56:33.905Z,8.80
2022-09-06T21:59:01.908Z,7.37
2022-09-06T22:01:34.323Z,5.90
2022-09-06T22:04:03.255Z,8.27
2022-09-06T22:06:32.920Z,11.13
2022-09-06T22:09:04.498Z,8.87
2022-09-06T22:11:34.539Z,8.60
2022-09-06T22:14:04.654Z,9.93
2022-09-06T22:16:35.805Z,8.60
2022-09-06T22:19:05.021Z,10.70
2022-09-06T22:21:33.953Z,10.60
2022-09-06T22:24:03.477Z,6.63
2022-09-06T22:26:33.621Z,7.63
2022-09-06T22:29:02.815Z,6.53
2022-09-06T22:31:33.838Z,8.27
2022-09-06T22:34:02.116Z,9.67
2022-09-06T22:36:30.154Z,8.43
2022-09-06T22:38:58.916Z,5.80
2022-09-06T22:41:28.996Z,6.13
2022-09-06T22:43:57.139Z,7.80
2022-09-06T22:46:25.862Z,6.67
2022-09-06T22:48:55.460Z,6.70
2022-09-06T22:51:23.429Z,7.10
2022-09-06T22:53:51.626Z,8.83
2022-09-06T22:56:19.754Z,8.37
2022-09-06T22:58:47.676Z,6.57
2022-09-06T23:01:17.397Z,8.07
2022-09-06T23:03:46.434Z,9.00
2022-09-06T23:06:15.676Z,6.53
2022-09-06T23:08:43.839Z,7.73
2022-09-06T23:11:13.694Z,8.43
2022-09-06T23:13:43.663Z,5.87
2022-09-06T23:16:13.832Z,10.87
2022-09-06T23:18:41.805Z,11.60
2022-09-06T23:21:11.569Z,7.80
2022-09-06T23:23:41.766Z,5.20
2022-09-06T23:26:11.401Z,7.83
2022-09-06T23:28:39.601Z,8.43
2022-09-06T23:31:10.997Z,9.73
2022-09-06T23:33:39.533Z,6.87
2022-09-06T23:36:09.219Z,12.20
2022-09-06T23:38:39.005Z,6.10
2022-09-06T23:41:10.382Z,6.80
2022-09-06T23:43:38.796Z,6.93
2022-09-06T23:46:06.818Z,5.70
2022-09-06T23:48:34.818Z,8.93
2022-09-06T23:51:03.022Z,6.70
2022-09-06T23:53:31.414Z,6.93
2022-09-06T23:55:59.304Z,8.80
2022-09-06T23:58:28.621Z,6.00
